Time;durP1;ratioP1;P1;durP2;ratioP2;P2;SDS_P1;SDS_P2;PMS_P1;PMS_P2;Temp;Humidity;BMP_temperature;BMP_pressure;BME280_temperature;BME280_humidity;BME280_pressure;Samples;Min_cycle;Max_cycle;Signal;HPM_P1;HPM_P2
2023/08/21 00:01:35;;;;;;;13.70;8.80;;;;;;;27.40;53.36;99510.91;105980;1251;63083;-71
2023/08/21 00:04:02;;;;;;;13.30;8.30;;;;;;;27.34;53.42;99506.73;106013;1251;61220;-71
2023/08/21 00:06:29;;;;;;;9.60;7.90;;;;;;;27.29;53.69;99507.19;106011;1254;74582;-72
2023/08/21 00:08:56;;;;;;;16.80;8.30;;;;;;;27.29;53.77;99506.80;105983;1257;69150;-71
2023/08/21 00:11:23;;;;;;;13.20;8.10;;;;;;;27.30;53.76;99503.90;105953;1257;73183;-75
2023/08/21 00:13:49;;;;;;;10.90;8.30;;;;;;;27.29;53.90;99507.19;105911;1251;61580;-71
2023/08/21 00:16:17;;;;;;;12.00;8.30;;;;;;;27.27;53.93;99505.73;105984;1257;61336;-70
2023/08/21 00:18:44;;;;;;;13.00;8.30;;;;;;;27.23;54.20;99502.91;106004;1256;75104;-71
2023/08/21 00:21:11;;;;;;;9.60;8.60;;;;;;;27.25;54.24;99500.04;105989;1251;69021;-71
2023/08/21 00:23:38;;;;;;;15.10;8.90;;;;;;;27.17;55.00;99495.23;105942;1251;73095;-70
2023/08/21 00:26:05;;;;;;;10.60;8.10;;;;;;;27.21;54.69;99492.95;105944;1253;62293;-71
2023/08/21 00:28:32;;;;;;;12.30;9.10;;;;;;;27.09;55.09;99492.80;106034;1251;61359;-70
2023/08/21 00:31:01;;;;;;;12.30;9.30;;;;;;;27.01;55.65;99494.92;105954;1256;75079;-73
2023/08/21 00:33:30;;;;;;;11.40;8.80;;;;;;;26.90;56.11;99494.58;105915;1256;67215;-72
2023/08/21 00:35:57;;;;;;;11.30;8.00;;;;;;;26.79;56.66;99499.63;105891;1257;72528;-71
2023/08/21 00:38:24;;;;;;;13.80;8.50;;;;;;;26.83;56.84;99499.54;105941;1252;61837;-70
2023/08/21 00:40:51;;;;;;;13.00;9.30;;;;;;;26.89;56.51;99499.35;105648;1260;61314;-71
2023/08/21 00:43:17;;;;;;;13.70;8.70;;;;;;;26.89;56.34;99499.97;105850;1257;75132;-70
2023/08/21 00:45:45;;;;;;;13.00;8.50;;;;;;;26.75;56.90;99504.99;105956;1252;69052;-71
2023/08/21 00:48:13;;;;;;;16.20;8.90;;;;;;;26.78;57.08;99502.59;106039;1252;72904;-72
2023/08/21 00:50:40;;;;;;;;;;;;;;;26.78;57.06;99506.31;106044;1251;61676;-70
2023/08/21 00:53:08;;;;;;;11.90;9.90;;;;;;;26.74;57.15;99508.34;105921;1254;61377;-75
2023/08/21 00:55:34;;;;;;;11.80;9.30;;;;;;;26.54;58.04;99507.62;105916;1254;75233;-70
2023/08/21 00:58:03;;;;;;;18.60;9.40;;;;;;;26.54;58.36;99509.35;105663;1254;69171;-71
2023/08/21 01:00:30;;;;;;;27.70;10.70;;;;;;;26.58;58.18;99511.41;105776;1256;71286;-72
2023/08/21 01:02:59;;;;;;;12.30;9.60;;;;;;;26.49;58.65;99511.67;105852;1254;61842;-70
2023/08/21 01:05:26;;;;;;;12.20;8.80;;;;;;;26.52;58.63;99511.75;105974;1256;61256;-71
2023/08/21 01:07:58;;;;;;;14.60;8.90;;;;;;;26.52;58.66;99512.78;105977;1256;75043;-71
2023/08/21 01:10:35;;;;;;;11.20;8.50;;;;;;;26.47;58.90;99514.55;105889;1258;69240;-70
2023/08/21 01:13:11;;;;;;;10.90;8.80;;;;;;;26.41;59.02;99509.86;105974;1253;73106;-72
2023/08/21 01:15:38;;;;;;;15.60;9.00;;;;;;;26.32;60.23;99513.67;105868;1253;61914;-71
2023/08/21 01:18:06;;;;;;;16.30;9.80;;;;;;;26.21;61.24;99517.36;105812;1254;61407;-71
2023/08/21 01:20:33;;;;;;;16.10;9.00;;;;;;;26.25;61.27;99518.65;105969;1256;74501;-72
2023/08/21 01:23:04;;;;;;;12.90;10.60;;;;;;;26.21;61.38;99522.58;105978;1257;68569;-72
2023/08/21 01:25:31;;;;;;;19.00;10.80;;;;;;;26.34;61.01;99520.48;105864;1253;72545;-71
2023/08/21 01:27:58;;;;;;;14.70;11.20;;;;;;;26.40;60.98;99523.11;105887;1254;62392;-71
2023/08/21 01:30:26;;;;;;;12.20;10.70;;;;;;;26.42;61.25;99527.02;105899;1256;61318;-70
2023/08/21 01:32:55;;;;;;;;;;;;;;;26.39;61.54;99526.41;105933;1259;74288;-70
2023/08/21 01:35:22;;;;;;;14.90;10.80;;;;;;;26.37;61.61;99522.34;105888;1257;69030;-70
2023/08/21 01:37:50;;;;;;;21.20;11.60;;;;;;;26.44;61.20;99524.71;105886;1253;73208;-72
2023/08/21 01:40:24;;;;;;;15.80;11.80;;;;;;;26.52;61.04;99525.67;105953;1256;61955;-72
2023/08/21 01:42:52;;;;;;;14.40;10.80;;;;;;;26.64;60.35;99527.19;105892;1257;61325;-72
2023/08/21 01:45:20;;;;;;;14.40;12.10;;;;;;;26.43;61.61;99528.94;105955;1256;74530;-72
2023/08/21 01:47:47;;;;;;;15.40;10.80;;;;;;;26.22;63.32;99527.30;106020;1256;67247;-72
2023/08/21 01:50:13;;;;;;;16.40;10.90;;;;;;;26.30;62.62;99531.23;105916;1254;72504;-72
2023/08/21 01:52:41;;;;;;;24.30;12.30;;;;;;;26.47;61.49;99529.71;105939;1251;61769;-72
2023/08/21 01:55:11;;;;;;;28.20;12.10;;;;;;;26.46;61.51;99524.58;105954;1251;61266;-71
2023/08/21 01:57:37;;;;;;;19.30;11.10;;;;;;;26.50;61.62;99530.58;105969;1257;75125;-71
2023/08/21 02:00:06;;;;;;;40.10;14.00;;;;;;;26.67;61.00;99529.14;105944;1257;68891;-70
2023/08/21 02:02:40;;;;;;;44.10;15.30;;;;;;;26.72;60.72;99523.81;105886;1256;73136;-70
2023/08/21 02:05:08;;;;;;;29.80;13.30;;;;;;;26.53;61.86;99525.13;105702;1256;63567;-72
2023/08/21 02:07:35;;;;;;;31.20;12.80;;;;;;;26.45;62.41;99523.32;105784;1257;61208;-71
2023/08/21 02:10:02;;;;;;;28.60;12.10;;;;;;;26.25;63.62;99523.28;105945;1257;75054;-71
2023/08/21 02:12:29;;;;;;;19.80;11.90;;;;;;;26.30;63.32;99521.02;105616;1260;68415;-74
2023/08/21 02:14:56;;;;;;;24.70;12.90;;;;;;;26.24;63.68;99524.90;105548;1262;73137;-71
2023/08/21 02:17:26;;;;;;;13.00;11.50;;;;;;;26.16;64.60;99522.52;105583;1257;61590;-71
2023/08/21 02:19:52;;;;;;;21.20;13.80;;;;;;;26.08;65.37;99516.77;105605;1257;61420;-71
2023/08/21 02:22:19;;;;;;;20.80;12.80;;;;;;;26.18;65.28;99522.02;105647;1262;75193;-70
2023/08/21 02:24:46;;;;;;;12.60;11.40;;;;;;;26.18;65.53;99523.50;105531;1261;68487;-70
2023/08/21 02:27:13;;;;;;;15.90;13.50;;;;;;;26.12;65.99;99525.25;105537;1261;73090;-71
2023/08/21 02:29:40;;;;;;;19.30;13.50;;;;;;;26.11;66.15;99524.95;105599;1257;61838;-72
2023/08/21 02:32:07;;;;;;;34.30;14.60;;;;;;;26.13;65.98;99525.11;106014;1251;61321;-75
2023/08/21 02:34:34;;;;;;;48.50;14.90;;;;;;;26.26;65.10;99528.01;105948;1258;74386;-71
2023/08/21 02:37:00;;;;;;;27.10;13.20;;;;;;;26.38;64.12;99524.66;105949;1257;68977;-71
2023/08/21 02:39:28;;;;;;;36.40;15.70;;;;;;;26.29;64.20;99522.51;106023;1257;73114;-71
2023/08/21 02:41:55;;;;;;;22.70;15.10;;;;;;;26.27;64.54;99522.78;105638;1257;61694;-71
2023/08/21 02:44:21;;;;;;;28.10;16.60;;;;;;;26.24;65.08;99522.86;105908;1256;61420;-73
2023/08/21 02:46:48;;;;;;;20.50;17.50;;;;;;;26.16;65.92;99525.89;105925;1256;74495;-74
2023/08/21 02:49:15;;;;;;;26.40;17.90;;;;;;;26.12;66.57;99530.55;105935;1251;69172;-72
2023/08/21 02:51:42;;;;;;;22.40;15.50;;;;;;;26.26;65.90;99527.55;108431;1251;72281;-71
2023/08/21 02:54:11;;;;;;;24.70;16.20;;;;;;;26.26;65.86;99525.73;109417;1254;60392;-71
2023/08/21 02:56:37;;;;;;;22.60;15.80;;;;;;;26.39;65.38;99525.71;109433;1256;58870;-71
2023/08/21 02:59:04;;;;;;;22.40;15.90;;;;;;;26.43;65.12;99526.02;108264;1257;73853;-69
2023/08/21 03:01:31;;;;;;;18.50;15.90;;;;;;;26.50;64.68;99524.06;105920;1251;68541;-75
2023/08/21 03:03:58;;;;;;;19.40;15.20;;;;;;;26.54;64.68;99520.92;106035;1255;72998;-75
2023/08/21 03:06:24;;;;;;;18.40;15.00;;;;;;;26.62;64.36;99522.52;105942;1255;62321;-72
2023/08/21 03:08:52;;;;;;;22.70;14.30;;;;;;;26.71;63.78;99526.08;105786;1257;61336;-76
2023/08/21 03:11:19;;;;;;;15.40;13.70;;;;;;;26.71;63.70;99522.70;105936;1255;74476;-71
2023/08/21 03:13:45;;;;;;;19.10;14.30;;;;;;;26.71;63.84;99521.04;105960;1253;69143;-74
2023/08/21 03:16:13;;;;;;;22.10;14.40;;;;;;;26.72;64.02;99525.70;105961;1264;73198;-71
2023/08/21 03:19:00;;;;;;;16.00;13.00;;;;;;;26.59;64.62;99525.90;105972;1251;61688;-71
2023/08/21 03:21:28;;;;;;;14.60;12.60;;;;;;;26.70;64.24;99528.48;105864;1254;61252;-72
2023/08/21 03:23:56;;;;;;;20.30;12.90;;;;;;;26.64;64.60;99524.73;105744;1257;75107;-72
2023/08/21 03:26:23;;;;;;;17.30;13.70;;;;;;;26.72;64.35;99526.39;105914;1257;69020;-70
2023/08/21 03:28:51;;;;;;;15.10;13.10;;;;;;;26.88;63.78;99530.56;105829;1257;72320;-71
2023/08/21 03:31:18;;;;;;;14.40;12.10;;;;;;;26.93;63.64;99527.43;105827;1255;62255;-72
2023/08/21 03:33:46;;;;;;;14.90;11.70;;;;;;;26.77;63.96;99527.59;105729;1257;61326;-68
2023/08/21 03:36:13;;;;;;;18.10;12.80;;;;;;;26.67;64.33;99524.26;105695;1266;75079;-70
2023/08/21 03:38:40;;;;;;;23.60;12.90;;;;;;;26.60;65.05;99521.38;105671;1255;69158;-71
2023/08/21 03:41:08;;;;;;;33.00;14.40;;;;;;;26.66;65.03;99515.12;105715;1253;73603;-75
2023/08/21 03:43:34;;;;;;;37.80;14.80;;;;;;;26.84;64.17;99516.98;105667;1258;61695;-69
2023/08/21 03:46:03;;;;;;;23.00;14.00;;;;;;;26.97;63.49;99516.42;105708;1256;61425;-69
2023/08/21 03:48:30;;;;;;;21.40;13.60;;;;;;;27.00;63.68;99517.81;105825;1257;74603;-69
2023/08/21 03:50:57;;;;;;;22.00;13.90;;;;;;;27.14;63.05;99515.32;105694;1258;68815;-69
2023/08/21 03:53:24;;;;;;;18.80;12.80;;;;;;;27.16;62.68;99514.65;105713;1254;72422;-71
2023/08/21 03:55:52;;;;;;;16.30;13.00;;;;;;;27.35;62.03;99515.30;105840;1254;61776;-70
2023/08/21 03:58:18;;;;;;;18.10;13.00;;;;;;;27.61;61.59;99521.80;105954;1256;61324;-70
2023/08/21 04:00:45;;;;;;;14.10;12.30;;;;;;;27.89;60.50;99523.54;105878;1257;74840;-70
2023/08/21 04:03:12;;;;;;;32.50;13.90;;;;;;;28.11;59.40;99523.61;105725;1257;69134;-73
2023/08/21 04:05:39;;;;;;;17.20;12.00;;;;;;;28.19;59.42;99523.97;105963;1253;73116;-70
2023/08/21 04:08:06;;;;;;;16.00;11.00;;;;;;;28.43;58.26;99523.52;105915;1251;61730;-70
2023/08/21 04:10:33;;;;;;;21.00;12.10;;;;;;;28.59;57.70;99521.74;105717;1251;61288;-69
2023/08/21 04:13:00;;;;;;;17.70;11.70;;;;;;;28.84;55.70;99522.77;105921;1257;75082;-70
2023/08/21 04:15:30;;;;;;;14.10;11.60;;;;;;;28.76;55.35;99528.81;105552;1251;69061;-69
2023/08/21 04:17:57;;;;;;;12.70;11.40;;;;;;;28.63;55.32;99524.48;105928;1251;71058;-71
2023/08/21 04:20:24;;;;;;;21.50;10.40;;;;;;;28.68;55.49;99527.14;105929;1251;62301;-72
2023/08/21 04:22:51;;;;;;;13.10;11.40;;;;;;;29.08;54.33;99527.84;105966;1256;61590;-74
2023/08/21 04:25:18;;;;;;;27.40;12.70;;;;;;;29.36;53.78;99528.44;105906;1256;75192;-71
2023/08/21 04:27:45;;;;;;;15.30;11.20;;;;;;;29.67;52.14;99532.90;105946;1256;68878;-71
2023/08/21 04:30:12;;;;;;;17.30;11.70;;;;;;;29.81;51.48;99527.32;106031;1257;73126;-70
2023/08/21 04:32:39;;;;;;;13.90;10.20;;;;;;;29.83;51.33;99524.89;105718;1257;62026;-68
2023/08/21 04:35:08;;;;;;;;;;;;;;;29.94;51.24;99526.23;105751;1254;61232;-70
2023/08/21 04:37:37;;;;;;;23.50;10.30;;;;;;;30.04;50.59;99525.34;105982;1256;75030;-69
2023/08/21 04:40:06;;;;;;;15.20;9.60;;;;;;;30.16;50.44;99527.23;105951;1257;68452;-69
2023/08/21 04:42:33;;;;;;;11.50;9.40;;;;;;;30.27;49.68;99526.61;105755;1259;73566;-72
2023/08/21 04:45:02;;;;;;;14.50;10.70;;;;;;;30.29;49.39;99533.25;105957;1251;61962;-70
2023/08/21 04:47:32;;;;;;;16.30;10.60;;;;;;;30.27;49.75;99535.23;105695;1258;62199;-73
2023/08/21 04:49:59;;;;;;;18.80;12.20;;;;;;;30.31;49.45;99538.98;105683;1254;75389;-72
2023/08/21 04:52:28;;;;;;;16.00;11.00;;;;;;;30.43;49.28;99537.92;105934;1251;69151;-71
2023/08/21 04:54:55;;;;;;;17.90;11.20;;;;;;;30.31;49.57;99540.30;105900;1256;73155;-71
2023/08/21 04:57:23;;;;;;;15.30;10.80;;;;;;;30.18;50.35;99535.80;105744;1255;61967;-70
2023/08/21 04:59:50;;;;;;;13.30;10.50;;;;;;;30.47;49.61;99532.32;105965;1252;61317;-69
2023/08/21 05:02:17;;;;;;;11.40;9.80;;;;;;;30.70;49.19;99535.58;105933;1256;75254;-71
2023/08/21 05:04:44;;;;;;;18.20;10.40;;;;;;;30.83;48.62;99533.66;105936;1254;69205;-71
2023/08/21 05:07:11;;;;;;;16.50;11.10;;;;;;;30.86;48.64;99531.06;105902;1251;72894;-72
2023/08/21 05:09:38;;;;;;;15.60;11.50;;;;;;;31.06;48.40;99533.81;105806;1254;61754;-74
2023/08/21 05:12:07;;;;;;;16.30;11.90;;;;;;;31.40;47.70;99535.47;105922;1251;62299;-69
2023/08/21 05:14:34;;;;;;;17.30;11.30;;;;;;;31.37;47.68;99535.85;105722;1257;74534;-70
2023/08/21 05:17:01;;;;;;;12.90;11.50;;;;;;;31.48;47.54;99537.29;105976;1256;69139;-70
2023/08/21 05:19:28;;;;;;;13.20;11.30;;;;;;;31.69;47.15;99539.13;105735;1254;73253;-69
2023/08/21 05:21:56;;;;;;;15.10;11.40;;;;;;;31.80;46.94;99538.70;105467;1260;61643;-71
2023/08/21 05:24:23;;;;;;;12.90;10.30;;;;;;;31.81;47.10;99537.52;105480;1259;61536;-69
2023/08/21 05:26:57;;;;;;;16.00;10.20;;;;;;;32.18;46.41;99539.52;105500;1263;66040;-70
2023/08/21 05:29:27;;;;;;;20.30;10.80;;;;;;;32.66;45.43;99542.65;105281;1264;61345;-68
2023/08/21 05:31:54;;;;;;;12.70;10.60;;;;;;;32.84;44.65;99541.55;105494;1264;63734;-72
2023/08/21 05:34:22;;;;;;;15.40;10.70;;;;;;;33.00;44.46;99544.17;105491;1260;61162;-73
2023/08/21 05:36:50;;;;;;;;;;;;;;;33.31;43.65;99547.95;105557;1261;61266;-71
2023/08/21 05:39:19;;;;;;;16.00;9.70;;;;;;;33.39;43.45;99548.70;105352;1264;65718;-71
2023/08/21 05:41:47;;;;;;;13.30;10.10;;;;;;;33.57;43.35;99551.89;105563;1260;61409;-70
2023/08/21 05:44:14;;;;;;;14.70;10.10;;;;;;;33.74;42.86;99553.75;105995;1256;64013;-69
2023/08/21 05:46:41;;;;;;;17.80;10.90;;;;;;;33.82;43.16;99556.55;105716;1252;61407;-69
2023/08/21 05:49:08;;;;;;;12.90;10.00;;;;;;;34.32;42.16;99559.48;105716;1251;61263;-70
2023/08/21 05:51:35;;;;;;;14.20;10.20;;;;;;;34.63;41.34;99564.81;105695;1257;65661;-69
2023/08/21 05:54:01;;;;;;;9.60;8.60;;;;;;;35.10;40.66;99563.25;105784;1258;61396;-74
2023/08/21 05:56:29;;;;;;;18.50;10.90;;;;;;;35.38;39.82;99563.33;105936;1251;63964;-71
2023/08/21 05:58:56;;;;;;;18.30;9.90;;;;;;;35.47;39.49;99558.80;106037;1254;61415;-71
2023/08/21 06:01:24;;;;;;;14.70;9.50;;;;;;;35.65;38.91;99559.64;106003;1251;61221;-71
2023/08/21 06:03:51;;;;;;;12.70;9.00;;;;;;;35.73;39.13;99556.00;105993;1251;65906;-71
2023/08/21 06:06:29;;;;;;;10.20;8.70;;;;;;;35.76;39.02;99556.91;105936;1252;62321;-69
2023/08/21 06:08:56;;;;;;;19.80;9.90;;;;;;;35.86;39.21;99558.32;105730;1251;64006;-69
2023/08/21 06:11:23;;;;;;;65.90;14.90;;;;;;;36.20;38.55;99558.77;105946;1252;62433;-70
2023/08/21 06:13:51;;;;;;;19.10;9.80;;;;;;;36.46;38.09;99562.64;105681;1251;61342;-70
2023/08/21 06:16:18;;;;;;;21.50;9.40;;;;;;;36.62;37.94;99560.50;105955;1255;65905;-72
2023/08/21 06:18:46;;;;;;;11.40;8.80;;;;;;;36.97;37.48;99565.21;106064;1255;61254;-72
2023/08/21 06:21:13;;;;;;;18.90;10.00;;;;;;;37.07;36.88;99568.03;105917;1256;62771;-68
2023/08/21 06:23:40;;;;;;;9.50;8.50;;;;;;;37.26;36.61;99567.11;105911;1256;61158;-70
2023/08/21 06:26:06;;;;;;;9.90;8.90;;;;;;;37.40;36.34;99566.38;105679;1253;61667;-70
2023/08/21 06:28:33;;;;;;;14.10;9.10;;;;;;;37.51;36.21;99567.73;105707;1257;65618;-70
2023/08/21 06:31:03;;;;;;;12.10;8.60;;;;;;;37.62;35.87;99569.39;105950;1251;61353;-72
2023/08/21 06:33:31;;;;;;;11.30;9.40;;;;;;;37.22;36.40;99563.20;106052;1251;63909;-70
2023/08/21 06:35:59;;;;;;;21.10;10.90;;;;;;;37.27;36.67;99564.94;105742;1252;61271;-72
2023/08/21 06:38:26;;;;;;;11.50;8.60;;;;;;;37.41;36.65;99566.38;105714;1257;61406;-70
2023/08/21 06:40:53;;;;;;;73.90;13.80;;;;;;;37.76;36.11;99565.53;105995;1255;65807;-72
2023/08/21 06:43:21;;;;;;;16.20;10.30;;;;;;;37.85;35.74;99568.58;105772;1251;61317;-71
2023/08/21 06:45:49;;;;;;;18.00;9.50;;;;;;;37.84;35.80;99575.16;106071;1251;63818;-71
2023/08/21 06:48:18;;;;;;;13.50;9.50;;;;;;;37.88;35.75;99576.41;105758;1256;61445;-70
2023/08/21 06:50:45;;;;;;;10.50;8.60;;;;;;;37.99;35.38;99576.96;105940;1251;61289;-69
2023/08/21 06:53:11;;;;;;;14.40;8.50;;;;;;;37.98;35.59;99574.65;106012;1253;65935;-69
2023/08/21 06:55:38;;;;;;;15.00;8.40;;;;;;;38.00;35.68;99575.79;106073;1251;61220;-69
2023/08/21 06:58:05;;;;;;;9.60;7.40;;;;;;;37.65;35.90;99568.57;106038;1251;63753;-69
2023/08/21 07:00:32;;;;;;;8.70;7.40;;;;;;;37.38;36.46;99571.79;106045;1251;62339;-72
2023/08/21 07:02:58;;;;;;;;;;;;;;;37.76;35.85;99575.59;105920;1251;62364;-71
2023/08/21 07:05:25;;;;;;;9.20;6.90;;;;;;;38.27;35.24;99577.89;105956;1255;66864;-71
2023/08/21 07:07:54;;;;;;;11.70;7.40;;;;;;;38.52;34.82;99578.65;105975;1251;61607;-71
2023/08/21 07:10:21;;;;;;;13.70;7.90;;;;;;;38.16;35.01;99578.92;106087;1256;63933;-72
2023/08/21 07:12:47;;;;;;;29.90;9.70;;;;;;;38.16;35.28;99577.88;106045;1255;61136;-70
2023/08/21 07:15:15;;;;;;;9.40;7.50;;;;;;;38.46;35.03;99577.16;106049;1251;61279;-70
2023/08/21 07:17:42;;;;;;;11.30;7.70;;;;;;;38.38;34.69;99579.92;106075;1256;65706;-69
2023/08/21 07:20:10;;;;;;;8.30;7.40;;;;;;;38.58;34.53;99578.73;105955;1251;62460;-70
2023/08/21 07:22:37;;;;;;;8.80;7.10;;;;;;;38.74;34.53;99580.02;106024;1251;62858;-73
2023/08/21 07:25:06;;;;;;;8.80;7.60;;;;;;;38.85;34.31;99579.78;105981;1251;61337;-71
2023/08/21 07:27:33;;;;;;;8.30;7.20;;;;;;;39.29;34.08;99576.93;106088;1251;61634;-71
2023/08/21 07:30:00;;;;;;;10.20;8.00;;;;;;;39.64;33.46;99580.13;105999;1256;65937;-70
2023/08/21 07:32:27;;;;;;;12.10;7.40;;;;;;;39.72;32.91;99579.16;106170;1251;62406;-70
2023/08/21 07:34:54;;;;;;;11.30;6.50;;;;;;;39.66;32.84;99576.95;106006;1251;63765;-72
2023/08/21 07:37:21;;;;;;;10.50;6.30;;;;;;;39.80;32.51;99574.80;106040;1251;61313;-71
2023/08/21 07:39:48;;;;;;;10.10;6.30;;;;;;;39.94;32.03;99572.49;105926;1251;61235;-70
2023/08/21 07:42:15;;;;;;;9.30;6.80;;;;;;;40.05;31.63;99570.71;105943;1256;65746;-71
2023/08/21 07:44:42;;;;;;;8.30;5.60;;;;;;;40.18;31.37;99572.15;106079;1251;61304;-70
2023/08/21 07:47:08;;;;;;;8.70;6.10;;;;;;;40.24;30.85;99569.43;105918;1251;63860;-69
2023/08/21 07:49:35;;;;;;;;;;;;;;;39.90;31.44;99566.70;105986;1251;61094;-71
2023/08/21 07:52:05;;;;;;;;;;;;;;;39.95;31.57;99566.44;105811;1251;61874;-70
2023/08/21 07:54:32;;;;;;;6.30;5.70;;;;;;;39.85;31.17;99569.82;105964;1251;65995;-71
2023/08/21 07:56:58;;;;;;;;;;;;;;;39.58;31.78;99562.30;105928;1251;61303;-71
2023/08/21 07:59:26;;;;;;;10.10;5.90;;;;;;;39.70;31.63;99567.20;105966;1256;62817;-72
2023/08/21 08:01:52;;;;;;;;;;;;;;;39.88;30.94;99569.98;106007;1251;61208;-72
2023/08/21 08:04:20;;;;;;;12.80;5.40;;;;;;;39.69;31.14;99569.40;105991;1253;61353;-70
2023/08/21 08:06:47;;;;;;;8.00;5.30;;;;;;;39.96;31.49;99568.95;106039;1256;65803;-69
2023/08/21 08:09:14;;;;;;;7.00;4.80;;;;;;;40.57;30.54;99573.39;106072;1251;61279;-70
2023/08/21 08:11:41;;;;;;;13.40;5.50;;;;;;;40.80;30.47;99570.93;106097;1253;63769;-75
2023/08/21 08:14:07;;;;;;;13.90;4.90;;;;;;;40.38;30.25;99574.85;105976;1254;62061;-69
2023/08/21 08:16:34;;;;;;;8.10;4.50;;;;;;;39.28;31.10;99569.73;106083;1251;61282;-69
2023/08/21 08:19:01;;;;;;;5.40;4.80;;;;;;;38.73;31.51;99568.92;105954;1256;65568;-70
2023/08/21 08:21:28;;;;;;;13.30;5.40;;;;;;;38.85;31.52;99564.95;105893;1251;61257;-70
2023/08/21 08:23:56;;;;;;;38.90;8.20;;;;;;;38.96;31.45;99564.88;105896;1251;63963;-72
2023/08/21 08:26:23;;;;;;;15.50;6.60;;;;;;;38.61;31.77;99568.30;106014;1251;62367;-72
2023/08/21 08:28:49;;;;;;;9.10;6.20;;;;;;;38.43;31.97;99569.45;106008;1251;61237;-71
2023/08/21 08:31:17;;;;;;;9.20;7.00;;;;;;;38.91;31.77;99569.89;105899;1255;65688;-71
2023/08/21 08:33:45;;;;;;;6.50;5.90;;;;;;;39.22;31.24;99567.44;105915;1256;61250;-68
2023/08/21 08:36:11;;;;;;;;;;;;;;;39.14;31.02;99568.36;106058;1251;63610;-70
2023/08/21 08:38:38;;;;;;;6.40;5.50;;;;;;;38.71;31.77;99565.93;105976;1251;61248;-71
2023/08/21 08:41:16;;;;;;;7.50;5.60;;;;;;;38.50;32.25;99560.84;105949;1251;100499;-69
2023/08/21 08:43:43;;;;;;;7.40;5.90;;;;;;;37.94;33.02;99556.91;105915;1251;66216;-71
2023/08/21 08:46:10;;;;;;;7.90;5.70;;;;;;;37.79;33.30;99555.61;105902;1251;61332;-70
2023/08/21 08:48:37;;;;;;;9.10;6.10;;;;;;;37.84;33.45;99555.55;105997;1251;63887;-73
2023/08/21 08:51:04;;;;;;;;;;;;;;;37.92;33.32;99554.66;105957;1251;62381;-69
2023/08/21 08:53:31;;;;;;;9.50;6.10;;;;;;;37.95;33.47;99554.10;105934;1253;61436;-71
2023/08/21 08:55:58;;;;;;;9.40;6.40;;;;;;;38.19;32.84;99554.34;105885;1254;65875;-70
2023/08/21 08:58:25;;;;;;;10.40;6.20;;;;;;;38.50;32.26;99554.67;105648;1260;61887;-70
2023/08/21 09:00:52;;;;;;;12.30;6.20;;;;;;;38.55;32.34;99550.13;105927;1254;63736;-70
2023/08/21 09:03:20;;;;;;;;;;;;;;;38.61;32.17;99547.41;105933;1253;61254;-69
2023/08/21 09:05:48;;;;;;;8.50;5.90;;;;;;;38.98;31.70;99545.64;105965;1253;61263;-70
2023/08/21 09:08:15;;;;;;;9.50;5.60;;;;;;;39.18;31.59;99539.91;106021;1253;65960;-74
2023/08/21 09:10:42;;;;;;;8.50;5.80;;;;;;;38.82;31.80;99542.85;105906;1253;61224;-74
2023/08/21 09:13:17;;;;;;;9.70;5.80;;;;;;;38.33;32.42;99539.38;106749;1253;63969;-69
2023/08/21 09:15:48;;;;;;;7.50;5.50;;;;;;;38.63;32.10;99541.39;109655;1252;58736;-70
2023/08/21 09:18:15;;;;;;;8.30;6.00;;;;;;;39.06;31.57;99541.01;109441;1253;58751;-69
2023/08/21 09:20:42;;;;;;;6.70;5.50;;;;;;;39.67;30.92;99537.71;109474;1253;64846;-70
2023/08/21 09:23:13;;;;;;;9.40;5.50;;;;;;;39.63;30.66;99538.84;106125;1257;61355;-74
2023/08/21 09:25:40;;;;;;;9.70;6.30;;;;;;;38.78;31.23;99536.85;106014;1253;62536;-71
2023/08/21 09:28:08;;;;;;;;;;;;;;;38.76;31.38;99536.13;106002;1253;61159;-75
2023/08/21 09:30:48;;;;;;;7.20;5.90;;;;;;;39.17;31.18;99530.95;105917;1257;61337;-75
2023/08/21 09:33:22;;;;;;;7.10;5.10;;;;;;;39.41;30.80;99528.20;105726;1259;65913;-69
2023/08/21 09:35:53;;;;;;;8.60;5.10;;;;;;;39.69;29.85;99525.42;106064;1254;62451;-69
2023/08/21 09:38:20;;;;;;;9.90;5.30;;;;;;;39.58;29.66;99525.73;105756;1259;63758;-69
2023/08/21 09:40:52;;;;;;;9.00;5.30;;;;;;;39.27;30.23;99521.64;105697;1253;61380;-74
2023/08/21 09:43:20;;;;;;;7.20;5.90;;;;;;;38.84;30.82;99517.63;105960;1253;61299;-74
2023/08/21 09:45:47;;;;;;;8.10;5.70;;;;;;;38.58;31.32;99517.36;105925;1254;65827;-70
2023/08/21 09:48:14;;;;;;;8.80;6.40;;;;;;;38.58;31.59;99520.17;105931;1253;61416;-70
2023/08/21 09:50:41;;;;;;;8.80;6.40;;;;;;;38.52;32.07;99518.73;105849;1253;63782;-72
2023/08/21 09:53:08;;;;;;;9.20;6.40;;;;;;;38.17;32.33;99513.58;105888;1256;61288;-69
2023/08/21 09:55:35;;;;;;;13.50;6.60;;;;;;;37.86;32.74;99508.86;105951;1254;61285;-69
2023/08/21 09:58:03;;;;;;;7.20;6.10;;;;;;;37.54;33.28;99508.88;105926;1256;65725;-70
2023/08/21 10:00:30;;;;;;;;;;;;;;;37.66;32.56;99509.45;105990;1251;61386;-70
2023/08/21 10:03:02;;;;;;;8.70;6.50;;;;;;;37.90;32.00;99507.78;105928;1251;63994;-72
2023/08/21 10:05:31;;;;;;;10.60;7.30;;;;;;;37.85;32.31;99504.24;105650;1253;61429;-75
2023/08/21 10:08:00;;;;;;;12.80;7.30;;;;;;;37.67;32.86;99503.52;105697;1254;61420;-71
2023/08/21 10:10:29;;;;;;;7.80;6.60;;;;;;;37.42;33.15;99501.73;105970;1253;65919;-69
2023/08/21 10:12:56;;;;;;;7.30;6.40;;;;;;;37.32;33.32;99505.48;105976;1251;61251;-70
2023/08/21 10:15:23;;;;;;;7.60;6.80;;;;;;;37.27;33.42;99506.26;105918;1251;63842;-70
2023/08/21 10:17:50;;;;;;;12.40;7.90;;;;;;;37.42;33.22;99495.81;105941;1257;61346;-70
2023/08/21 10:20:23;;;;;;;11.80;7.60;;;;;;;37.51;33.35;99498.30;105709;1253;61412;-70
2023/08/21 10:22:52;;;;;;;8.80;6.90;;;;;;;37.82;33.13;99498.08;105971;1251;65820;-69
2023/08/21 10:25:26;;;;;;;13.80;8.70;;;;;;;38.11;32.88;99504.35;106036;1251;62350;-68
2023/08/21 10:28:03;;;;;;;8.20;6.80;;;;;;;38.64;33.18;99505.40;105955;1251;63771;-70
2023/08/21 10:30:31;;;;;;;8.60;7.10;;;;;;;39.31;31.90;99499.95;105999;1251;61285;-71
2023/08/21 10:32:58;;;;;;;10.20;6.60;;;;;;;39.75;31.26;99503.55;105964;1251;61247;-71
2023/08/21 10:35:30;;;;;;;10.40;6.10;;;;;;;40.24;30.44;99502.62;105969;1255;65811;-74
2023/08/21 10:38:10;;;;;;;8.00;6.50;;;;;;;40.38;30.12;99503.70;106004;1257;61250;-70
2023/08/21 10:40:39;;;;;;;8.10;6.30;;;;;;;40.40;30.19;99501.92;106007;1251;63998;-74
2023/08/21 10:43:40;;;;;;;6.40;5.80;;;;;;;40.56;29.68;99505.59;105709;1251;61317;-70
2023/08/21 10:46:09;;;;;;;8.40;6.00;;;;;;;40.40;29.12;99502.64;106015;1251;61161;-70
2023/08/21 10:48:36;;;;;;;11.50;6.90;;;;;;;39.86;29.51;99495.46;106053;1256;65630;-72
2023/08/21 10:51:05;;;;;;;12.10;6.10;;;;;;;39.52;29.86;99493.75;105999;1251;61416;-72
2023/08/21 10:53:32;;;;;;;8.60;6.00;;;;;;;39.19;30.51;99494.42;106004;1251;62625;-71
2023/08/21 10:56:03;;;;;;;8.90;6.50;;;;;;;39.11;30.97;99482.17;105745;1251;61230;-70
2023/08/21 10:58:43;;;;;;;7.40;6.60;;;;;;;38.83;31.56;99484.06;105900;1260;61369;-68
2023/08/21 11:01:10;;;;;;;9.50;6.50;;;;;;;38.82;31.61;99489.32;105954;1256;65925;-70
2023/08/21 11:03:40;;;;;;;7.60;6.40;;;;;;;38.85;31.63;99485.86;105978;1251;61766;-70
2023/08/21 11:06:08;;;;;;;9.90;6.90;;;;;;;38.86;31.54;99489.04;105913;1254;63870;-69
2023/08/21 11:08:35;;;;;;;11.00;6.60;;;;;;;38.89;31.43;99486.54;105932;1251;61218;-70
2023/08/21 11:11:03;;;;;;;6.50;5.90;;;;;;;39.33;30.78;99485.22;105959;1251;61326;-70
2023/08/21 11:13:30;;;;;;;10.50;6.00;;;;;;;39.63;30.00;99482.61;105973;1256;65943;-69
2023/08/21 11:16:01;;;;;;;9.80;6.30;;;;;;;39.56;29.75;99482.28;105990;1251;61218;-70
2023/08/21 11:18:36;;;;;;;10.60;8.50;;;;;;;39.45;29.80;99480.55;105953;1251;63819;-72
2023/08/21 11:21:10;;;;;;;14.00;7.20;;;;;;;39.05;29.50;99477.52;105951;1251;61319;-72
2023/08/21 11:23:40;;;;;;;9.20;6.90;;;;;;;38.75;29.87;99481.04;106028;1251;61244;-72